createdAt,value
2018-04-25T00:01:46.864Z,8.82
2018-04-25T00:04:21.997Z,8.63
2018-04-25T00:06:56.694Z,11.85
2018-04-25T00:09:31.361Z,8.38
2018-04-25T00:12:06.121Z,10.57
2018-04-25T00:14:40.709Z,8.60
2018-04-25T00:17:15.519Z,9.40
2018-04-25T00:19:53.537Z,8.27
2018-04-25T00:22:28.786Z,6.93
2018-04-25T00:25:05.386Z,9.10
2018-04-25T00:27:41.567Z,8.45
2018-04-25T00:30:17.523Z,8.23
2018-04-25T00:32:53.145Z,7.90
2018-04-25T00:35:28.375Z,8.45
2018-04-25T00:38:04.350Z,10.43
2018-04-25T00:40:40.131Z,8.68
2018-04-25T00:43:15.472Z,9.02
2018-04-25T00:45:51.963Z,9.05
2018-04-25T00:48:26.402Z,7.32
2018-04-25T00:51:01.537Z,9.13
2018-04-25T00:53:37.717Z,9.90
2018-04-25T00:56:13.494Z,6.78
2018-04-25T00:58:48.706Z,8.43
2018-04-25T01:01:24.366Z,11.75
2018-04-25T01:04:00.262Z,7.25
2018-04-25T01:06:34.738Z,8.98
2018-04-25T01:09:10.029Z,7.30
2018-04-25T01:11:44.867Z,7.00
2018-04-25T01:14:19.331Z,7.55
2018-04-25T01:16:55.377Z,6.90
2018-04-25T01:19:30.149Z,7.90
2018-04-25T01:22:04.746Z,6.40
2018-04-25T01:24:39.913Z,6.80
2018-04-25T01:27:14.657Z,8.25
2018-04-25T01:29:50.692Z,6.75
2018-04-25T01:32:27.331Z,6.75
2018-04-25T01:35:02.240Z,6.55
2018-04-25T01:37:45.099Z,7.87
2018-04-25T01:40:20.460Z,7.35
2018-04-25T01:42:54.994Z,8.80
2018-04-25T01:45:29.977Z,10.32
2018-04-25T01:48:15.701Z,8.45
2018-04-25T01:50:58.316Z,10.48
2018-04-25T01:53:46.046Z,10.73
2018-04-25T01:56:32.396Z,8.27
2018-04-25T01:59:20.481Z,6.65
2018-04-25T02:01:55.256Z,7.95
2018-04-25T02:04:30.831Z,8.38
2018-04-25T02:07:07.305Z,6.87
2018-04-25T02:09:43.085Z,8.13
2018-04-25T02:12:18.688Z,10.93
2018-04-25T02:14:53.896Z,9.63
2018-04-25T02:17:28.980Z,10.88
2018-04-25T02:20:05.470Z,7.95
2018-04-25T02:22:40.758Z,7.90
2018-04-25T02:25:17.144Z,7.62
2018-04-25T02:27:52.575Z,7.37
2018-04-25T02:30:27.757Z,8.15
2018-04-25T02:33:04.620Z,7.90
2018-04-25T02:35:41.077Z,7.65
2018-04-25T02:38:16.510Z,9.00
2018-04-25T02:40:51.840Z,7.20
2018-04-25T02:43:29.161Z,7.97
2018-04-25T02:46:04.053Z,6.87
2018-04-25T02:48:40.797Z,11.15
2018-04-25T02:51:16.484Z,7.53
2018-04-25T02:53:52.445Z,7.00
2018-04-25T02:56:29.212Z,7.35
2018-04-25T02:59:04.397Z,10.25
2018-04-25T03:01:42.177Z,8.00
2018-04-25T03:04:18.673Z,11.38
2018-04-25T03:06:54.681Z,7.07
2018-04-25T03:09:29.932Z,7.60
2018-04-25T03:12:06.493Z,7.22
2018-04-25T03:14:42.536Z,8.73
2018-04-25T03:17:18.945Z,5.97
2018-04-25T03:19:55.189Z,5.40
2018-04-25T03:22:31.326Z,7.57
2018-04-25T03:25:06.772Z,8.93
2018-04-25T03:27:42.927Z,5.75
2018-04-25T03:30:19.097Z,14.85
2018-04-25T03:32:55.085Z,10.82
2018-04-25T03:35:31.621Z,10.38
2018-04-25T03:38:07.076Z,9.52
2018-04-25T03:40:43.744Z,10.02
2018-04-25T03:43:21.335Z,8.52
2018-04-25T03:45:58.272Z,7.05
2018-04-25T03:48:33.474Z,9.60
2018-04-25T03:51:08.553Z,6.22
2018-04-25T03:53:45.270Z,6.55
2018-04-25T03:56:20.456Z,9.27
2018-04-25T03:58:55.425Z,5.12
2018-04-25T04:01:32.081Z,5.75
2018-04-25T04:04:07.220Z,5.97
2018-04-25T04:06:43.688Z,6.70
2018-04-25T04:09:19.624Z,7.15
2018-04-25T04:11:56.155Z,5.82
2018-04-25T04:14:32.702Z,5.75
2018-04-25T04:17:09.052Z,5.95
2018-04-25T04:19:44.052Z,6.90
2018-04-25T04:22:20.664Z,6.20
2018-04-25T04:24:59.034Z,11.10
2018-04-25T04:27:34.649Z,7.10
2018-04-25T04:30:10.416Z,5.25
2018-04-25T04:32:46.147Z,8.35
2018-04-25T04:35:21.672Z,7.20
2018-04-25T04:37:56.873Z,7.15
2018-04-25T04:40:33.082Z,6.25
2018-04-25T04:43:08.445Z,6.72
2018-04-25T04:45:44.854Z,11.18
2018-04-25T04:48:20.972Z,5.35
2018-04-25T04:50:57.617Z,6.95
2018-04-25T04:53:34.173Z,9.52
2018-04-25T04:56:10.356Z,7.67
2018-04-25T04:58:45.400Z,5.27
2018-04-25T05:01:21.206Z,6.77
2018-04-25T05:03:57.384Z,8.03
2018-04-25T05:06:34.992Z,6.97
2018-04-25T05:09:10.978Z,6.57
2018-04-25T05:11:48.164Z,5.57
2018-04-25T05:14:24.344Z,7.40
2018-04-25T05:17:00.276Z,6.73
2018-04-25T05:19:36.428Z,6.83
2018-04-25T05:22:13.250Z,8.20
2018-04-25T05:24:48.566Z,6.83
2018-04-25T05:27:24.376Z,8.97
2018-04-25T05:30:01.437Z,6.23
2018-04-25T05:32:39.177Z,8.23
2018-04-25T05:35:14.334Z,6.43
2018-04-25T05:37:49.540Z,8.57
2018-04-25T05:40:26.184Z,4.73
2018-04-25T05:43:01.964Z,5.63
2018-04-25T05:45:37.077Z,6.40
2018-04-25T05:48:12.541Z,4.97
2018-04-25T05:50:48.754Z,7.47
2018-04-25T05:53:23.546Z,4.30
2018-04-25T05:55:59.160Z,5.97
2018-04-25T05:58:35.132Z,7.30
2018-04-25T06:01:10.258Z,6.83
2018-04-25T06:03:47.805Z,6.43
2018-04-25T06:06:23.908Z,6.33
2018-04-25T06:09:00.051Z,7.23
2018-04-25T06:11:37.147Z,4.37
2018-04-25T06:14:14.217Z,6.27
2018-04-25T06:16:51.166Z,6.00
2018-04-25T06:19:25.945Z,7.63
2018-04-25T06:22:00.658Z,5.73
2018-04-25T06:24:35.745Z,9.63
2018-04-25T06:27:11.472Z,6.43
2018-04-25T06:29:49.141Z,8.23
2018-04-25T06:32:25.454Z,7.13
2018-04-25T06:35:01.177Z,5.60
2018-04-25T06:37:37.555Z,4.13
2018-04-25T06:40:13.693Z,6.60
2018-04-25T06:42:49.590Z,4.50
2018-04-25T06:45:26.561Z,5.13
2018-04-25T06:48:02.128Z,8.00
2018-04-25T06:50:37.941Z,10.80
2018-04-25T06:53:13.808Z,8.07
2018-04-25T06:55:50.905Z,12.43
2018-04-25T06:58:27.648Z,7.20
2018-04-25T07:01:27.166Z,7.13
2018-04-25T07:04:09.157Z,7.00
2018-04-25T07:06:52.073Z,6.23
2018-04-25T07:09:37.781Z,5.20
2018-04-25T07:12:13.628Z,7.10
2018-04-25T07:14:48.379Z,8.67
2018-04-25T07:17:24.185Z,5.07
2018-04-25T07:20:00.780Z,8.17
2018-04-25T07:22:36.311Z,6.77
2018-04-25T07:25:12.758Z,7.57
2018-04-25T07:27:49.061Z,9.43
2018-04-25T07:30:25.277Z,8.60
2018-04-25T07:33:00.348Z,8.43
2018-04-25T07:35:35.231Z,7.77
2018-04-25T07:38:11.765Z,5.97
2018-04-25T07:40:47.810Z,9.20
2018-04-25T07:43:24.156Z,8.00
2018-04-25T07:45:59.515Z,8.10
2018-04-25T07:48:34.508Z,6.67
2018-04-25T07:51:11.657Z,18.40
2018-04-25T07:53:49.108Z,12.37
2018-04-25T07:56:29.204Z,8.13
2018-04-25T08:01:55.844Z,7.27
2018-04-25T08:04:31.606Z,8.53
2018-04-25T08:07:07.324Z,9.83
2018-04-25T08:09:50.574Z,11.07
2018-04-25T08:12:48.680Z,6.00
2018-04-25T08:15:39.336Z,7.93
2018-04-25T08:18:26.433Z,10.93
2018-04-25T08:24:14.525Z,12.30
2018-04-25T08:26:51.095Z,5.97
2018-04-25T08:29:29.972Z,9.40
2018-04-25T08:32:05.993Z,5.53
2018-04-25T08:34:43.502Z,5.20
2018-04-25T08:37:19.458Z,8.40
2018-04-25T08:39:55.348Z,5.37
2018-04-25T08:42:32.492Z,8.07
2018-04-25T08:45:09.309Z,5.10
2018-04-25T08:47:46.113Z,6.77
2018-04-25T08:50:23.501Z,6.30
2018-04-25T08:52:59.864Z,9.90
2018-04-25T08:55:36.333Z,7.57
2018-04-25T08:58:11.679Z,5.37
2018-04-25T09:00:47.596Z,10.20
2018-04-25T09:03:23.869Z,4.60
2018-04-25T09:05:59.956Z,4.60
2018-04-25T09:08:36.101Z,7.33
2018-04-25T09:11:12.345Z,5.33
2018-04-25T09:13:48.720Z,4.23
2018-04-25T09:16:25.050Z,8.33
2018-04-25T09:19:01.617Z,7.67
2018-04-25T09:21:36.410Z,6.37
2018-04-25T09:24:11.309Z,8.27
2018-04-25T09:26:47.864Z,6.30
2018-04-25T09:29:24.036Z,6.47
2018-04-25T09:31:59.768Z,5.20
2018-04-25T09:34:37.787Z,6.57
2018-04-25T09:37:13.886Z,7.00
2018-04-25T09:39:49.914Z,8.37
2018-04-25T09:42:25.723Z,8.93
2018-04-25T09:45:01.908Z,8.80
2018-04-25T09:47:38.377Z,6.83
2018-04-25T09:50:14.707Z,6.03
2018-04-25T09:52:50.826Z,6.10
2018-04-25T09:55:28.263Z,5.27
2018-04-25T09:58:04.062Z,8.93
2018-04-25T10:00:46.052Z,6.57
2018-04-25T10:03:23.147Z,6.43
2018-04-25T10:06:00.652Z,8.20
2018-04-25T10:08:35.866Z,7.53
2018-04-25T10:11:12.787Z,6.43
2018-04-25T10:13:47.962Z,6.93
2018-04-25T10:16:25.636Z,7.40
2018-04-25T10:19:01.221Z,6.80
2018-04-25T10:21:37.608Z,7.07
2018-04-25T10:24:13.698Z,33.00
2018-04-25T10:26:49.688Z,9.97
2018-04-25T10:29:26.868Z,8.10
2018-04-25T10:32:03.107Z,6.17
2018-04-25T10:34:39.363Z,8.07
2018-04-25T10:37:15.255Z,8.00
2018-04-25T10:39:51.614Z,5.33
2018-04-25T10:42:27.628Z,4.87
2018-04-25T10:45:02.612Z,4.93
2018-04-25T10:47:39.736Z,6.70
2018-04-25T10:50:16.872Z,8.63
2018-04-25T10:52:52.645Z,8.37
2018-04-25T10:55:29.770Z,10.80
2018-04-25T10:58:07.016Z,7.90
2018-04-25T11:00:44.024Z,7.03
2018-04-25T11:03:21.401Z,6.27
2018-04-25T11:05:56.846Z,9.33
2018-04-25T11:08:33.084Z,5.73
2018-04-25T11:11:07.575Z,5.57
2018-04-25T11:13:44.160Z,9.47
2018-04-25T11:16:21.936Z,13.47
2018-04-25T11:18:59.009Z,8.23
2018-04-25T11:21:34.010Z,7.00
2018-04-25T11:24:10.965Z,7.10
2018-04-25T11:26:49.206Z,5.93
2018-04-25T11:29:25.563Z,8.67
2018-04-25T11:32:01.564Z,10.30
2018-04-25T11:34:37.667Z,8.40
2018-04-25T11:37:13.793Z,9.57
2018-04-25T11:39:50.088Z,8.73
2018-04-25T11:42:26.449Z,6.43
2018-04-25T11:45:03.112Z,6.87
2018-04-25T11:47:39.504Z,9.37
2018-04-25T11:50:15.617Z,8.30
2018-04-25T11:52:51.916Z,6.17
2018-04-25T11:55:28.273Z,7.57
2018-04-25T11:58:04.032Z,7.77
2018-04-25T12:00:41.322Z,6.10
2018-04-25T12:03:18.009Z,8.43
2018-04-25T12:05:54.767Z,4.93
2018-04-25T12:08:31.015Z,5.80
2018-04-25T12:11:07.057Z,5.07
2018-04-25T12:13:44.921Z,5.67
2018-04-25T12:16:22.396Z,7.00
2018-04-25T12:18:58.351Z,6.90
2018-04-25T12:21:35.875Z,3.80
2018-04-25T12:24:11.980Z,8.87
2018-04-25T12:26:47.701Z,6.07
2018-04-25T12:29:23.788Z,7.93
2018-04-25T12:31:59.576Z,6.67
2018-04-25T12:34:35.299Z,8.57
2018-04-25T12:37:12.025Z,4.70
2018-04-25T12:39:48.117Z,7.10
2018-04-25T12:42:24.161Z,4.60
2018-04-25T12:45:01.169Z,6.10
2018-04-25T12:47:37.846Z,4.67
2018-04-25T12:50:14.288Z,7.50
2018-04-25T12:52:51.101Z,6.93
2018-04-25T12:55:26.217Z,4.73
2018-04-25T12:58:01.681Z,6.50
2018-04-25T13:00:38.033Z,6.67
2018-04-25T13:03:14.017Z,6.47
2018-04-25T13:05:50.185Z,6.50
2018-04-25T13:08:26.449Z,8.93
2018-04-25T13:11:02.286Z,9.87
2018-04-25T13:13:38.652Z,11.77
2018-04-25T13:16:14.902Z,10.50
2018-04-25T13:18:51.792Z,8.67
2018-04-25T13:21:28.052Z,8.43
2018-04-25T13:24:03.171Z,7.00
2018-04-25T13:26:39.092Z,9.83
2018-04-25T13:29:15.598Z,7.77
2018-04-25T13:31:51.581Z,6.53
2018-04-25T13:34:27.476Z,6.90
2018-04-25T13:37:04.898Z,5.27
2018-04-25T13:39:41.502Z,7.90
2018-04-25T13:42:18.979Z,8.47
2018-04-25T13:44:55.749Z,4.97
2018-04-25T13:47:32.708Z,5.00
2018-04-25T13:50:09.630Z,7.87
2018-04-25T13:52:44.332Z,8.20
2018-04-25T13:55:20.968Z,7.23
2018-04-25T13:57:55.934Z,7.47
2018-04-25T14:00:32.320Z,5.70
2018-04-25T14:03:09.289Z,7.03
2018-04-25T14:05:45.874Z,5.93
2018-04-25T14:08:22.610Z,6.80
2018-04-25T14:10:58.756Z,9.87
2018-04-25T14:13:36.159Z,6.20
2018-04-25T14:16:12.450Z,5.50
2018-04-25T14:18:48.718Z,5.87
2018-04-25T14:21:24.693Z,4.80
2018-04-25T14:24:00.796Z,5.17
2018-04-25T14:26:37.272Z,5.73
2018-04-25T14:29:14.961Z,6.27
2018-04-25T14:31:51.887Z,9.57
2018-04-25T14:34:27.773Z,7.80
2018-04-25T14:37:03.861Z,11.13
2018-04-25T14:39:40.218Z,5.13
2018-04-25T14:42:16.380Z,8.97
2018-04-25T14:44:53.664Z,6.90
2018-04-25T14:47:29.356Z,8.23
2018-04-25T14:50:05.600Z,5.80
2018-04-25T14:52:41.430Z,4.80
2018-04-25T14:55:16.662Z,7.33
2018-04-25T14:57:52.406Z,7.97
2018-04-25T15:00:28.340Z,7.83
2018-04-25T15:03:04.476Z,4.07
2018-04-25T15:05:40.831Z,3.90
2018-04-25T15:08:17.224Z,4.13
2018-04-25T15:10:53.394Z,3.70
2018-04-25T15:13:29.332Z,6.23
2018-04-25T15:16:05.594Z,4.53
2018-04-25T15:18:41.163Z,5.00
2018-04-25T15:21:17.562Z,3.83
2018-04-25T15:23:53.352Z,3.43
2018-04-25T15:26:29.293Z,5.67
2018-04-25T15:29:05.450Z,7.63
2018-04-25T15:31:42.304Z,3.43
2018-04-25T15:34:17.240Z,4.10
2018-04-25T15:36:52.695Z,6.23
2018-04-25T15:39:28.321Z,4.63
2018-04-25T15:42:04.713Z,3.23
2018-04-25T15:44:41.480Z,3.10
2018-04-25T15:47:18.559Z,2.93
2018-04-25T15:49:54.580Z,4.57
2018-04-25T15:52:30.868Z,2.93
2018-04-25T15:55:08.069Z,2.53
2018-04-25T15:57:44.474Z,3.30
2018-04-25T16:00:21.647Z,2.87
2018-04-25T16:02:57.853Z,4.70
2018-04-25T16:05:34.787Z,2.33
2018-04-25T16:08:10.929Z,4.00
2018-04-25T16:10:46.250Z,3.77
2018-04-25T16:13:22.489Z,2.87
2018-04-25T16:15:58.177Z,2.70
2018-04-25T16:18:34.534Z,2.40
2018-04-25T16:21:11.623Z,4.50
2018-04-25T16:23:48.092Z,3.13
2018-04-25T16:26:23.279Z,3.87
2018-04-25T16:28:58.408Z,3.27
2018-04-25T16:31:34.114Z,4.20
2018-04-25T16:34:09.308Z,5.37
2018-04-25T16:36:45.600Z,7.03
2018-04-25T16:39:22.485Z,4.27
2018-04-25T16:42:00.656Z,3.95
2018-04-25T16:44:37.226Z,5.62
2018-04-25T16:47:13.816Z,6.78
2018-04-25T16:49:50.180Z,4.50
2018-04-25T16:52:27.699Z,6.93
2018-04-25T16:55:03.819Z,6.25
2018-04-25T16:57:40.213Z,8.93
2018-04-25T17:00:16.618Z,9.48
2018-04-25T17:02:54.152Z,10.30
2018-04-25T17:05:31.113Z,11.45
2018-04-25T17:08:07.021Z,11.60
2018-04-25T17:10:44.305Z,11.95
2018-04-25T17:13:20.371Z,13.35
2018-04-25T17:15:57.140Z,11.75
2018-04-25T17:18:33.318Z,12.18
2018-04-25T17:21:10.186Z,13.25
2018-04-25T17:23:47.218Z,13.85
2018-04-25T17:26:22.797Z,13.43
2018-04-25T17:28:58.195Z,17.20
2018-04-25T17:31:34.073Z,12.00
2018-04-25T17:34:09.422Z,12.70
2018-04-25T17:36:46.989Z,11.88
2018-04-25T17:39:22.485Z,11.30
2018-04-25T17:41:58.701Z,10.52
2018-04-25T17:44:35.176Z,15.65
2018-04-25T17:47:10.981Z,11.20
2018-04-25T17:49:47.305Z,11.23
2018-04-25T17:52:23.885Z,15.90
2018-04-25T17:54:59.357Z,15.18
2018-04-25T17:57:35.837Z,12.85
2018-04-25T18:00:13.359Z,11.35
2018-04-25T18:02:51.380Z,14.60
2018-04-25T18:05:29.759Z,13.02
2018-04-25T18:08:05.761Z,14.45
2018-04-25T18:10:42.330Z,11.35
2018-04-25T18:13:17.613Z,14.90
2018-04-25T18:15:52.770Z,15.52
2018-04-25T18:18:30.820Z,17.02
2018-04-25T18:21:07.093Z,15.05
2018-04-25T18:23:42.288Z,13.77
2018-04-25T18:26:17.992Z,13.43
2018-04-25T18:28:53.238Z,15.32
2018-04-25T18:31:29.281Z,15.65
2018-04-25T18:34:06.777Z,13.23
2018-04-25T18:36:43.101Z,16.70
2018-04-25T18:39:19.235Z,13.18
2018-04-25T18:41:54.436Z,16.75
2018-04-25T18:44:31.838Z,14.93
2018-04-25T18:47:08.746Z,15.85
2018-04-25T18:49:45.035Z,15.88
2018-04-25T18:52:20.284Z,14.68
2018-04-25T18:54:55.972Z,15.98
2018-04-25T18:57:33.002Z,15.65
2018-04-25T19:00:08.813Z,16.83
2018-04-25T19:02:44.850Z,13.57
2018-04-25T19:05:20.345Z,15.30
2018-04-25T19:07:55.641Z,18.42
2018-04-25T19:10:32.112Z,17.55
2018-04-25T19:13:07.638Z,15.15
2018-04-25T19:15:43.621Z,19.30
2018-04-25T19:18:19.195Z,16.60
2018-04-25T19:20:54.438Z,16.67
2018-04-25T19:23:30.560Z,17.48
2018-04-25T19:26:06.276Z,16.40
2018-04-25T19:28:44.461Z,15.13
2018-04-25T19:31:20.044Z,18.55
2018-04-25T19:33:56.534Z,16.70
2018-04-25T19:36:37.283Z,16.02
2018-04-25T19:39:14.313Z,19.33
2018-04-25T19:41:52.378Z,14.55
2018-04-25T19:44:27.754Z,17.50
2018-04-25T19:47:04.063Z,19.23
2018-04-25T19:49:41.874Z,17.25
2018-04-25T19:52:17.899Z,17.48
2018-04-25T19:54:53.967Z,18.17
2018-04-25T19:57:30.091Z,19.37
2018-04-25T20:00:05.838Z,18.20
2018-04-25T20:02:41.245Z,18.20
2018-04-25T20:05:16.847Z,14.02
2018-04-25T20:07:51.944Z,17.75
2018-04-25T20:10:32.613Z,18.75
2018-04-25T20:13:09.089Z,19.45
2018-04-25T20:15:45.082Z,16.42
2018-04-25T20:18:22.044Z,16.05
2018-04-25T20:20:58.944Z,15.60
2018-04-25T20:23:34.877Z,14.77
2018-04-25T20:26:11.328Z,16.67
2018-04-25T20:28:48.115Z,14.70
2018-04-25T20:31:29.229Z,15.00
2018-04-25T20:34:06.301Z,16.98
2018-04-25T20:36:42.982Z,15.98
2018-04-25T20:39:20.753Z,17.27
2018-04-25T20:41:56.037Z,15.00
2018-04-25T20:44:31.644Z,16.20
2018-04-25T20:47:10.993Z,13.68
2018-04-25T20:49:47.724Z,15.43
2018-04-25T20:52:24.080Z,14.82
2018-04-25T20:55:00.132Z,14.82
2018-04-25T20:57:38.616Z,16.60
2018-04-25T21:00:16.685Z,14.63
2018-04-25T21:02:52.060Z,17.45
2018-04-25T21:05:32.897Z,16.05
2018-04-25T21:08:09.474Z,14.90
2018-04-25T21:10:45.526Z,15.82
2018-04-25T21:13:22.497Z,17.08
2018-04-25T21:15:59.821Z,14.60
2018-04-25T21:18:36.497Z,14.90
2018-04-25T21:21:13.363Z,13.80
2018-04-25T21:23:50.384Z,11.18
2018-04-25T21:26:25.364Z,13.38
2018-04-25T21:29:01.416Z,12.48
2018-04-25T21:31:37.355Z,14.57
2018-04-25T21:34:12.525Z,11.65
2018-04-25T21:36:48.290Z,11.93
2018-04-25T21:39:26.628Z,16.20
2018-04-25T21:42:03.423Z,14.25
2018-04-25T21:44:40.113Z,15.90
2018-04-25T21:47:16.745Z,15.18
2018-04-25T21:49:55.213Z,13.98
2018-04-25T21:52:31.943Z,14.07
2018-04-25T21:55:08.597Z,14.63
2018-04-25T21:57:44.877Z,13.75
2018-04-25T22:00:20.424Z,13.35
2018-04-25T22:02:56.823Z,14.38
2018-04-25T22:05:33.617Z,14.77
2018-04-25T22:08:09.881Z,15.38
2018-04-25T22:10:46.838Z,15.85
2018-04-25T22:13:23.287Z,18.08
2018-04-25T22:15:59.647Z,15.70
2018-04-25T22:18:34.781Z,16.55
2018-04-25T22:21:10.732Z,14.90
2018-04-25T22:23:46.080Z,16.02
2018-04-25T22:26:21.584Z,16.75
2018-04-25T22:28:56.952Z,18.20
2018-04-25T22:31:32.420Z,17.20
2018-04-25T22:34:07.845Z,17.17
2018-04-25T22:36:44.278Z,19.12
2018-04-25T22:39:21.019Z,19.30
2018-04-25T22:41:56.423Z,19.02
2018-04-25T22:44:31.876Z,22.48
2018-04-25T22:47:08.512Z,19.20
2018-04-25T22:49:45.014Z,20.60
2018-04-25T22:52:21.865Z,19.62
2018-04-25T22:54:58.338Z,18.87
2018-04-25T22:57:34.616Z,20.62
2018-04-25T23:00:09.192Z,21.67
2018-04-25T23:02:45.296Z,25.05
2018-04-25T23:05:20.388Z,18.08
2018-04-25T23:07:56.078Z,20.27
2018-04-25T23:10:32.035Z,21.02
2018-04-25T23:13:07.298Z,15.85
2018-04-25T23:15:42.694Z,17.50
2018-04-25T23:18:18.275Z,15.48
2018-04-25T23:20:53.585Z,16.98
2018-04-25T23:23:29.924Z,16.23
2018-04-25T23:26:07.022Z,18.70
2018-04-25T23:28:42.060Z,20.98
2018-04-25T23:31:17.532Z,15.25
2018-04-25T23:33:53.760Z,17.42
2018-04-25T23:36:29.687Z,15.88
2018-04-25T23:39:04.310Z,15.30
2018-04-25T23:41:41.323Z,16.10
2018-04-25T23:44:16.495Z,17.92
2018-04-25T23:46:53.496Z,13.52
2018-04-25T23:49:30.951Z,15.98
2018-04-25T23:52:06.585Z,17.85
2018-04-25T23:54:42.064Z,17.45
2018-04-25T23:57:17.226Z,16.40
2018-04-25T23:59:54.464Z,16.08
